createdAt,value
2022-09-12T00:00:48.492Z,96862.38
2022-09-12T00:03:16.234Z,96853.69
2022-09-12T00:05:44.336Z,96858.75
2022-09-12T00:08:12.945Z,96861.38
2022-09-12T00:10:43.922Z,96859.34
2022-09-12T00:13:12.328Z,96857.34
2022-09-12T00:15:40.150Z,96858.31
2022-09-12T00:18:09.318Z,96865.22
2022-09-12T00:20:37.010Z,96862.59
2022-09-12T00:23:04.611Z,96863.56
2022-09-12T00:25:32.072Z,96853.28
2022-09-12T00:28:00.897Z,96856.53
2022-09-12T00:30:28.537Z,96864.59
2022-09-12T00:32:56.043Z,96855.13
2022-09-12T00:35:23.559Z,96858.53
2022-09-12T00:37:51.028Z,96854.28
2022-09-12T00:40:18.528Z,96853.66
2022-09-12T00:42:46.019Z,96844.19
2022-09-12T00:45:24.058Z,96848.84
2022-09-12T00:47:51.654Z,96844.56
2022-09-12T00:50:19.550Z,96839.94
2022-09-12T00:52:51.787Z,96839.56
2022-09-12T00:55:23.243Z,96838.53
2022-09-12T00:57:54.951Z,96835.53
2022-09-12T01:00:26.360Z,96831.06
2022-09-12T01:02:58.112Z,96829.66
2022-09-12T01:05:29.130Z,96825.63
2022-09-12T01:07:57.946Z,96821.78
2022-09-12T01:10:25.892Z,96821.19
2022-09-12T01:12:53.581Z,96822.16
2022-09-12T01:15:21.136Z,96819.75
2022-09-12T01:18:03.079Z,96816.91
2022-09-12T01:20:47.449Z,96818.13
2022-09-12T01:23:44.707Z,96816.91
2022-09-12T01:26:39.504Z,96808.06
2022-09-12T01:29:26.325Z,96812.28
2022-09-12T01:32:01.401Z,96808.44
2022-09-12T01:34:40.081Z,96801.34
2022-09-12T01:37:15.291Z,96796.50
2022-09-12T01:39:53.381Z,96790.03
2022-09-12T01:42:27.893Z,96799.31
2022-09-12T01:45:03.151Z,96799.72
2022-09-12T01:47:40.407Z,96797.50
2022-09-12T01:50:11.681Z,96799.31
2022-09-12T01:52:45.736Z,96792.28
2022-09-12T01:55:19.652Z,96789.03
2022-09-12T01:57:53.814Z,96793.06
2022-09-12T02:00:21.593Z,96784.56
2022-09-12T02:02:54.916Z,96794.63
2022-09-12T02:05:29.414Z,96788.38
2022-09-12T02:08:03.936Z,96789.78
2022-09-12T02:10:34.437Z,96787.34
2022-09-12T02:13:09.338Z,96783.31
2022-09-12T02:15:40.959Z,96782.09
2022-09-12T02:18:15.159Z,96787.75
2022-09-12T02:20:48.397Z,96785.50
2022-09-12T02:23:20.644Z,96785.69
2022-09-12T02:25:52.053Z,96779.03
2022-09-12T02:28:24.922Z,96781.25
2022-09-12T02:31:00.525Z,96784.06
2022-09-12T02:33:38.676Z,96778.81
2022-09-12T02:36:14.370Z,96772.94
2022-09-12T02:38:45.761Z,96781.22
2022-09-12T02:41:16.808Z,96775.56
2022-09-12T02:43:44.682Z,96782.66
2022-09-12T02:46:17.891Z,96780.44
2022-09-12T02:48:46.884Z,96783.28
2022-09-12T02:51:14.800Z,96776.81
2022-09-12T02:53:43.219Z,96770.94
2022-09-12T02:56:18.281Z,96774.97
2022-09-12T02:58:46.407Z,96769.91
2022-09-12T03:01:28.903Z,96772.94
2022-09-12T03:04:23.764Z,96775.75
2022-09-12T03:07:02.731Z,96763.44
2022-09-12T03:09:38.801Z,96765.06
2022-09-12T03:12:17.147Z,96758.00
2022-09-12T03:15:07.395Z,96763.25
2022-09-12T03:17:48.426Z,96761.25
2022-09-12T03:20:29.704Z,96757.63
2022-09-12T03:23:01.948Z,96768.31
2022-09-12T03:25:33.666Z,96760.66
2022-09-12T03:28:07.557Z,96759.06
2022-09-12T03:30:39.189Z,96757.66
2022-09-12T03:33:07.019Z,96760.84
2022-09-12T03:35:35.933Z,96761.44
2022-09-12T03:38:03.468Z,96767.72
2022-09-12T03:40:30.960Z,96761.25
2022-09-12T03:42:58.468Z,96764.63
2022-09-12T03:45:26.007Z,96758.16
2022-09-12T03:47:53.579Z,96765.03
2022-09-12T03:50:21.268Z,96757.97
2022-09-12T03:52:50.137Z,96767.25
2022-09-12T03:55:18.144Z,96766.47
2022-09-12T03:57:45.814Z,96757.84
2022-09-12T04:00:19.049Z,96765.91
2022-09-12T04:02:47.371Z,96763.88
2022-09-12T04:05:14.955Z,96766.28
2022-09-12T04:07:42.445Z,96757.41
2022-09-12T04:10:11.509Z,96762.63
2022-09-12T04:12:39.523Z,96753.38
2022-09-12T04:15:08.328Z,96747.34
2022-09-12T04:17:36.153Z,96753.41
2022-09-12T04:20:03.948Z,96751.81
2022-09-12T04:22:32.554Z,96747.34
2022-09-12T04:25:00.188Z,96745.72
2022-09-12T04:27:29.316Z,96762.06
2022-09-12T04:29:57.392Z,96759.25
2022-09-12T04:32:24.922Z,96764.69
2022-09-12T04:34:53.388Z,96757.22
2022-09-12T04:37:21.214Z,96753.59
2022-09-12T04:39:49.708Z,96751.22
2022-09-12T04:42:17.436Z,96766.72
2022-09-12T04:44:46.306Z,96756.03
2022-09-12T04:47:13.780Z,96764.16
2022-09-12T04:49:41.269Z,96757.47
2022-09-12T04:52:09.087Z,96759.69
2022-09-12T04:54:36.583Z,96759.47
2022-09-12T04:57:04.427Z,96755.84
2022-09-12T04:59:31.917Z,96761.84
2022-09-12T05:02:00.905Z,96760.44
2022-09-12T05:04:28.474Z,96756.63
2022-09-12T05:06:55.997Z,96761.06
2022-09-12T05:09:23.544Z,96751.41
2022-09-12T05:12:06.361Z,96756.63
2022-09-12T05:14:34.466Z,96759.69
2022-09-12T05:17:05.948Z,96754.66
2022-09-12T05:19:33.877Z,96757.06
2022-09-12T05:22:01.548Z,96760.84
2022-09-12T05:24:29.041Z,96763.25
2022-09-12T05:26:56.589Z,96765.47
2022-09-12T05:29:25.140Z,96764.44
2022-09-12T05:31:53.169Z,96766.84
2022-09-12T05:34:22.223Z,96761.97
2022-09-12T05:36:49.808Z,96766.59
2022-09-12T05:39:18.546Z,96769.41
2022-09-12T05:41:47.344Z,96768.56
2022-09-12T05:44:15.770Z,96771.19
2022-09-12T05:46:44.995Z,96779.03
2022-09-12T05:49:14.511Z,96772.38
2022-09-12T05:51:45.895Z,96775.00
2022-09-12T05:54:15.177Z,96785.13
2022-09-12T05:56:44.219Z,96783.16
2022-09-12T05:59:14.188Z,96776.75
2022-09-12T06:01:41.988Z,96785.22
2022-09-12T06:04:10.593Z,96775.16
2022-09-12T06:06:41.730Z,96782.81
2022-09-12T06:09:10.977Z,96781.41
2022-09-12T06:11:41.255Z,96780.78
2022-09-12T06:14:10.792Z,96783.59
2022-09-12T06:16:38.960Z,96780.38
2022-09-12T06:19:08.447Z,96778.75
2022-09-12T06:21:37.830Z,96778.75
2022-09-12T06:24:05.603Z,96780.38
2022-09-12T06:26:35.031Z,96772.31
2022-09-12T06:29:03.214Z,96774.97
2022-09-12T06:31:33.196Z,96776.81
2022-09-12T06:34:02.516Z,96773.00
2022-09-12T06:36:32.026Z,96769.00
2022-09-12T06:39:03.180Z,96764.59
2022-09-12T06:41:32.134Z,96770.47
2022-09-12T06:44:01.951Z,96766.44
2022-09-12T06:46:31.071Z,96759.78
2022-09-12T06:49:00.605Z,96764.69
2022-09-12T06:51:29.102Z,96769.50
2022-09-12T06:53:57.636Z,96769.25
2022-09-12T06:56:27.453Z,96776.06
2022-09-12T06:58:57.332Z,96775.19
2022-09-12T07:01:28.551Z,96774.50
2022-09-12T07:03:57.697Z,96766.34
2022-09-12T07:06:31.583Z,96773.31
2022-09-12T07:08:59.751Z,96767.91
2022-09-12T07:11:29.294Z,96770.38
2022-09-12T07:13:57.527Z,96771.25
2022-09-12T07:16:26.620Z,96760.97
2022-09-12T07:18:55.637Z,96762.47
2022-09-12T07:21:23.491Z,96763.91
2022-09-12T07:23:52.052Z,96767.81
2022-09-12T07:26:20.014Z,96771.25
2022-09-12T07:28:52.022Z,96770.19
2022-09-12T07:31:20.225Z,96773.06
2022-09-12T07:33:54.444Z,96767.38
2022-09-12T07:36:25.296Z,96770.78
2022-09-12T07:38:57.602Z,96766.78
2022-09-12T07:41:27.461Z,96769.94
2022-09-12T07:43:56.152Z,96764.56
2022-09-12T07:46:24.959Z,96766.03
2022-09-12T07:48:55.376Z,96769.13
2022-09-12T07:51:23.578Z,96767.81
2022-09-12T07:53:51.797Z,96768.91
2022-09-12T07:56:21.118Z,96767.69
2022-09-12T07:58:49.222Z,96768.66
2022-09-12T08:01:18.398Z,96765.91
2022-09-12T08:03:47.621Z,96770.84
2022-09-12T08:06:20.006Z,96768.22
2022-09-12T08:08:48.766Z,96766.59
2022-09-12T08:11:18.612Z,96765.38
2022-09-12T08:13:49.643Z,96774.72
2022-09-12T08:16:22.605Z,96774.91
2022-09-12T08:18:51.129Z,96776.03
2022-09-12T08:21:22.335Z,96778.94
2022-09-12T08:23:54.057Z,96772.19
2022-09-12T08:26:22.082Z,96774.47
2022-09-12T08:28:50.062Z,96776.69
2022-09-12T08:31:19.168Z,96776.19
2022-09-12T08:33:46.865Z,96781.00
2022-09-12T08:36:16.979Z,96777.69
2022-09-12T08:38:47.479Z,96777.25
2022-09-12T08:41:24.968Z,96772.69
2022-09-12T08:44:13.602Z,96775.03
2022-09-12T08:46:51.755Z,96775.41
2022-09-12T08:49:26.302Z,96762.91
2022-09-12T08:51:55.528Z,96767.84
2022-09-12T08:54:28.200Z,96779.88
2022-09-12T08:57:02.651Z,96764.97
2022-09-12T08:59:36.665Z,96764.50
2022-09-12T09:02:15.171Z,96762.34
2022-09-12T09:04:51.782Z,96764.63
2022-09-12T09:07:39.432Z,96764.91
2022-09-12T09:10:23.545Z,96763.97
2022-09-12T09:12:58.329Z,96759.75
2022-09-12T09:15:45.483Z,96754.03
2022-09-12T09:18:19.535Z,96762.81
2022-09-12T09:20:52.997Z,96760.19
2022-09-12T09:23:24.747Z,96756.50
2022-09-12T09:25:56.738Z,96755.47
2022-09-12T09:28:29.894Z,96765.31
2022-09-12T09:30:58.409Z,96758.50
2022-09-12T09:33:29.048Z,96758.50
2022-09-12T09:36:14.782Z,96756.09
2022-09-12T09:38:49.967Z,96750.94
2022-09-12T09:41:36.278Z,96747.03
2022-09-12T09:44:04.423Z,96742.44
2022-09-12T09:46:33.321Z,96749.94
2022-09-12T09:49:03.195Z,96735.66
2022-09-12T09:51:36.912Z,96741.03
2022-09-12T09:54:12.200Z,96738.66
2022-09-12T09:56:42.426Z,96738.94
2022-09-12T09:59:12.697Z,96739.69
2022-09-12T10:01:46.387Z,96729.38
2022-09-12T10:04:21.755Z,96728.00
2022-09-12T10:06:52.568Z,96737.44
2022-09-12T10:09:25.788Z,96733.75
2022-09-12T10:11:56.374Z,96734.78
2022-09-12T10:14:38.456Z,96728.72
2022-09-12T10:17:33.778Z,96734.28
2022-09-12T10:20:21.617Z,96724.53
2022-09-12T10:22:50.460Z,96728.06
2022-09-12T10:25:20.236Z,96723.38
2022-09-12T10:27:55.106Z,96720.97
2022-09-12T10:30:24.996Z,96721.72
2022-09-12T10:32:54.339Z,96718.53
2022-09-12T10:35:23.913Z,96715.00
2022-09-12T10:37:55.391Z,96713.09
2022-09-12T10:40:26.022Z,96720.16
2022-09-12T10:42:56.225Z,96715.13
2022-09-12T10:45:27.224Z,96720.53
2022-09-12T10:47:58.163Z,96721.22
2022-09-12T10:50:29.749Z,96716.16
2022-09-12T10:53:14.773Z,96713.38
2022-09-12T10:55:48.461Z,96718.53
2022-09-12T10:58:32.217Z,96709.22
2022-09-12T11:01:10.058Z,96706.06
2022-09-12T11:03:59.743Z,96708.41
2022-09-12T11:06:36.294Z,96710.69
2022-09-12T11:09:10.891Z,96711.47
2022-09-12T11:11:54.091Z,96714.22
2022-09-12T11:14:35.318Z,96706.38
2022-09-12T11:17:06.053Z,96704.34
2022-09-12T11:19:50.938Z,96700.16
2022-09-12T11:22:32.030Z,96687.28
2022-09-12T11:25:08.678Z,96679.88
2022-09-12T11:27:50.679Z,96683.34
2022-09-12T11:30:19.855Z,96675.28
2022-09-12T11:33:00.044Z,96670.84
2022-09-12T11:35:30.042Z,96670.56
2022-09-12T11:38:21.091Z,96671.66
2022-09-12T11:40:54.506Z,96673.38
2022-09-12T11:43:30.867Z,96674.00
2022-09-12T11:46:07.639Z,96670.81
2022-09-12T11:48:44.823Z,96664.81
2022-09-12T11:51:19.792Z,96660.81
2022-09-12T11:53:59.418Z,96658.66
2022-09-12T11:56:27.152Z,96650.19
2022-09-12T11:59:02.011Z,96652.97
2022-09-12T12:01:41.317Z,96648.75
2022-09-12T12:04:13.813Z,96654.22
2022-09-12T12:06:52.082Z,96643.47
2022-09-12T12:09:19.865Z,96640.03
2022-09-12T12:11:52.611Z,96648.44
2022-09-12T12:14:24.010Z,96645.00
2022-09-12T12:16:52.897Z,96636.13
2022-09-12T12:19:33.878Z,96633.75
2022-09-12T12:22:18.120Z,96627.03
2022-09-12T12:25:05.679Z,96631.13
2022-09-12T12:27:49.287Z,96622.84
2022-09-12T12:31:00.411Z,96627.84
2022-09-12T12:33:55.751Z,96619.81
2022-09-12T12:36:40.293Z,96609.75
2022-09-12T12:39:45.720Z,96600.88
2022-09-12T12:43:04.494Z,96597.41
2022-09-12T12:46:12.406Z,96590.84
2022-09-12T12:48:52.849Z,96593.81
2022-09-12T12:52:01.228Z,96591.56
2022-09-12T12:54:35.601Z,96591.47
2022-09-12T12:57:18.527Z,96588.47
2022-09-12T12:59:50.082Z,96585.31
2022-09-12T13:02:24.068Z,96586.19
2022-09-12T13:04:52.519Z,96594.50
2022-09-12T13:07:28.674Z,96603.34
2022-09-12T13:09:57.756Z,96599.25
2022-09-12T13:12:27.271Z,96589.16
2022-09-12T13:14:58.409Z,96589.91
2022-09-12T13:17:35.905Z,96587.91
2022-09-12T13:20:27.821Z,96575.22
2022-09-12T13:22:58.342Z,96580.94
2022-09-12T13:25:30.114Z,96585.78
2022-09-12T13:28:07.402Z,96580.19
2022-09-12T13:30:37.409Z,96578.66
2022-09-12T13:33:21.813Z,96572.09
2022-09-12T13:36:08.609Z,96564.16
2022-09-12T13:38:48.629Z,96563.00
2022-09-12T13:41:37.375Z,96554.88
2022-09-12T13:44:05.378Z,96555.47
2022-09-12T13:46:35.251Z,96569.41
2022-09-12T13:49:11.511Z,96561.72
2022-09-12T13:51:39.232Z,96562.56
2022-09-12T13:54:08.268Z,96561.25
2022-09-12T13:56:48.385Z,96558.41
2022-09-12T13:59:15.993Z,96550.44
2022-09-12T14:01:45.067Z,96550.50
2022-09-12T14:08:28.876Z,96556.03
2022-09-12T15:37:44.226Z,96479.69
2022-09-12T16:51:11.338Z,96450.13
2022-09-12T16:53:40.340Z,96445.06
2022-09-12T16:56:08.634Z,96433.38
2022-09-12T16:58:41.817Z,96433.09
2022-09-12T17:01:11.161Z,96436.81
2022-09-12T17:03:39.220Z,96437.06
2022-09-12T17:06:09.333Z,96437.06
2022-09-12T17:08:40.319Z,96436.00
2022-09-12T17:11:11.101Z,96431.47
2022-09-12T17:14:03.239Z,96428.25
2022-09-12T17:16:28.329Z,96437.53
2022-09-12T17:18:56.279Z,96430.06
2022-09-12T17:21:23.985Z,96420.47
2022-09-12T17:23:52.971Z,96429.75
2022-09-12T17:26:20.760Z,96430.78
2022-09-12T17:28:48.825Z,96427.03
2022-09-12T17:31:17.226Z,96423.53
2022-09-12T17:33:45.373Z,96425.06
2022-09-12T17:36:15.326Z,96429.78
2022-09-12T17:38:44.321Z,96431.88
2022-09-12T17:41:21.484Z,96435.81
2022-09-12T17:43:51.019Z,96435.25
2022-09-12T17:46:19.156Z,96440.78
2022-09-12T17:48:46.813Z,96443.91
2022-09-12T17:51:16.265Z,96446.47
2022-09-12T17:53:44.429Z,96445.31
2022-09-12T17:56:12.357Z,96443.16
2022-09-12T17:58:41.384Z,96440.16
2022-09-12T18:01:30.650Z,96451.47
2022-09-12T18:04:00.565Z,96455.38
2022-09-12T18:06:29.487Z,96457.69
2022-09-12T18:08:59.983Z,96458.69
2022-09-12T18:11:27.634Z,96448.03
2022-09-12T18:13:56.842Z,96460.66
2022-09-12T18:16:24.415Z,96462.47
2022-09-12T18:18:52.063Z,96457.63
2022-09-12T18:21:20.418Z,96466.88
2022-09-12T18:23:48.412Z,96471.63
2022-09-12T18:26:16.128Z,96466.81
2022-09-12T18:28:45.279Z,96467.31
2022-09-12T18:31:16.982Z,96478.41
2022-09-12T18:33:45.214Z,96464.84
2022-09-12T18:36:14.461Z,96475.06
2022-09-12T18:38:42.753Z,96472.88
2022-09-12T18:41:12.293Z,96478.03
2022-09-12T18:43:40.539Z,96479.00
2022-09-12T18:46:10.125Z,96481.59
2022-09-12T18:48:39.794Z,96485.78
2022-09-12T18:51:09.088Z,96487.81
2022-09-12T18:53:37.756Z,96484.03
2022-09-12T18:56:08.604Z,96484.59
2022-09-12T18:58:36.568Z,96477.13
2022-09-12T19:01:12.068Z,96475.16
2022-09-12T19:03:41.250Z,96463.59
2022-09-12T19:06:11.845Z,96463.50
2022-09-12T19:08:40.052Z,96463.69
2022-09-12T19:11:08.789Z,96467.19
2022-09-12T19:13:38.753Z,96466.50
2022-09-12T19:16:09.216Z,96466.53
2022-09-12T19:18:37.948Z,96467.91
2022-09-12T19:21:08.188Z,96457.38
2022-09-12T19:23:36.503Z,96472.25
2022-09-12T19:26:06.737Z,96469.50
2022-09-12T19:28:34.801Z,96462.28
2022-09-12T19:31:06.325Z,96471.41
2022-09-12T19:33:34.131Z,96471.75
2022-09-12T19:36:04.359Z,96472.13
2022-09-12T19:38:38.820Z,96475.13
2022-09-12T19:41:12.324Z,96465.03
2022-09-12T19:43:42.633Z,96458.97
2022-09-12T19:46:27.829Z,96458.72
2022-09-12T19:49:14.090Z,96453.22
2022-09-12T19:51:41.890Z,96454.94
2022-09-12T20:05:15.134Z,96444.81
2022-09-12T20:08:06.411Z,96448.59
2022-09-12T20:11:00.264Z,96450.66
2022-09-12T20:13:48.999Z,96452.06
2022-09-12T20:17:24.091Z,96453.66
2022-09-12T20:20:43.626Z,96451.47
2022-09-12T20:26:33.592Z,96455.41
2022-09-12T20:29:18.921Z,96449.78
2022-09-12T20:32:23.592Z,96451.81
2022-09-12T20:39:14.215Z,96446.53
2022-09-12T20:51:28.443Z,96436.22
2022-09-12T21:07:46.933Z,96423.47
2022-09-12T21:13:41.802Z,96421.19
2022-09-12T21:45:01.015Z,96429.69
2022-09-12T21:51:29.761Z,96414.56
2022-09-12T22:05:52.017Z,96415.81
2022-09-12T22:08:34.625Z,96409.97
2022-09-12T22:11:20.783Z,96406.50
2022-09-12T22:14:05.633Z,96429.44
2022-09-12T22:16:46.284Z,96427.59
2022-09-12T22:19:28.420Z,96421.09
2022-09-12T22:22:24.643Z,96416.41
2022-09-12T22:24:53.645Z,96413.19
2022-09-12T22:27:21.922Z,96415.81
2022-09-12T22:29:52.113Z,96417.06
2022-09-12T22:32:20.739Z,96414.66
2022-09-12T22:34:49.153Z,96400.44
2022-09-12T22:37:18.884Z,96405.38
2022-09-12T22:39:47.053Z,96410.09
2022-09-12T22:42:15.690Z,96401.34
2022-09-12T22:44:44.173Z,96395.63
2022-09-12T22:47:12.231Z,96398.59
2022-09-12T22:49:40.851Z,96389.91
2022-09-12T22:52:08.874Z,96382.56
2022-09-12T22:54:38.373Z,96375.69
2022-09-12T22:57:07.314Z,96377.75
2022-09-12T22:59:35.218Z,96371.66
2022-09-12T23:02:03.624Z,96362.38
2022-09-12T23:04:32.128Z,96352.31
2022-09-12T23:07:00.450Z,96354.59
2022-09-12T23:09:32.060Z,96346.38
2022-09-12T23:12:04.877Z,96351.28
2022-09-12T23:14:32.782Z,96347.28
2022-09-12T23:17:00.827Z,96345.44
2022-09-12T23:19:28.545Z,96349.13
2022-09-12T23:21:56.433Z,96347.06
2022-09-12T23:24:24.289Z,96348.88
2022-09-12T23:26:51.909Z,96352.06
2022-09-12T23:29:21.460Z,96355.38
2022-09-12T23:31:49.241Z,96351.97
2022-09-12T23:34:17.822Z,96357.22
2022-09-12T23:36:48.957Z,96342.47
2022-09-12T23:39:16.974Z,96347.47
2022-09-12T23:41:45.087Z,96351.97
2022-09-12T23:44:13.306Z,96350.38
2022-09-12T23:46:42.437Z,96345.31
2022-09-12T23:49:11.296Z,96339.69
2022-09-12T23:51:40.012Z,96327.78
2022-09-12T23:54:08.798Z,96334.66
2022-09-12T23:56:37.116Z,96338.31
2022-09-12T23:59:05.195Z,96340.38
